createdAt,value
2023-05-04T00:02:03.542Z,63.92
2023-05-04T00:04:30.152Z,64.12
2023-05-04T00:06:56.681Z,64.31
2023-05-04T00:09:23.226Z,64.58
2023-05-04T00:11:49.786Z,64.66
2023-05-04T00:14:16.384Z,64.56
2023-05-04T00:16:44.145Z,64.88
2023-05-04T00:19:10.991Z,64.86
2023-05-04T00:21:37.498Z,65.00
2023-05-04T00:24:04.254Z,64.68
2023-05-04T00:26:30.822Z,65.49
2023-05-04T00:28:57.419Z,64.91
2023-05-04T00:31:24.003Z,64.98
2023-05-04T00:33:50.621Z,65.05
2023-05-04T00:36:17.407Z,65.46
2023-05-04T00:38:51.362Z,65.10
2023-05-04T00:41:18.907Z,65.26
2023-05-04T00:43:45.766Z,65.18
2023-05-04T00:46:13.596Z,65.43
2023-05-04T00:48:45.234Z,65.48
2023-05-04T00:51:13.317Z,65.33
2023-05-04T00:53:40.148Z,66.01
2023-05-04T00:56:07.101Z,65.78
2023-05-04T00:58:34.190Z,65.87
2023-05-04T01:01:01.525Z,66.02
2023-05-04T01:03:28.681Z,65.77
2023-05-04T01:06:13.277Z,66.44
2023-05-04T01:08:43.590Z,66.76
2023-05-04T01:11:13.517Z,66.22
2023-05-04T01:13:40.223Z,66.82
2023-05-04T01:16:06.947Z,66.75
2023-05-04T01:18:33.470Z,66.54
2023-05-04T01:21:00.038Z,66.75
2023-05-04T01:23:27.417Z,67.64
2023-05-04T01:26:15.752Z,67.57
2023-05-04T01:28:47.618Z,67.13
2023-05-04T01:31:17.007Z,68.08
2023-05-04T01:33:44.778Z,67.88
2023-05-04T01:36:11.569Z,68.14
2023-05-04T01:38:38.085Z,68.19
2023-05-04T01:41:04.749Z,68.52
2023-05-04T01:43:31.283Z,68.57
2023-05-04T01:45:57.854Z,68.50
2023-05-04T01:48:24.398Z,68.78
2023-05-04T01:50:50.877Z,69.01
2023-05-04T01:53:17.394Z,69.35
2023-05-04T01:55:43.892Z,69.70
2023-05-04T01:58:10.417Z,69.92
2023-05-04T02:00:37.137Z,70.49
2023-05-04T02:03:03.800Z,70.72
2023-05-04T02:05:30.402Z,70.78
2023-05-04T02:07:56.984Z,70.97
2023-05-04T02:10:23.591Z,71.01
2023-05-04T02:12:50.556Z,71.14
2023-05-04T02:15:17.153Z,71.46
2023-05-04T02:17:43.849Z,71.52
2023-05-04T02:20:10.794Z,71.53
2023-05-04T02:22:37.281Z,72.09
2023-05-04T02:25:04.227Z,71.88
2023-05-04T02:27:30.896Z,72.31
2023-05-04T02:30:00.542Z,72.01
2023-05-04T02:32:27.209Z,72.18
2023-05-04T02:34:53.766Z,72.48
2023-05-04T02:37:20.262Z,72.53
2023-05-04T02:39:46.793Z,72.58
2023-05-04T02:42:13.916Z,72.39
2023-05-04T02:44:40.475Z,72.41
2023-05-04T02:47:06.976Z,72.31
2023-05-04T02:49:33.481Z,72.43
2023-05-04T02:52:00.211Z,72.32
2023-05-04T02:54:26.796Z,72.15
2023-05-04T02:56:53.407Z,72.15
2023-05-04T02:59:19.980Z,72.15
2023-05-04T03:01:46.709Z,72.28
2023-05-04T03:04:13.311Z,72.56
2023-05-04T03:06:39.832Z,72.58
2023-05-04T03:09:06.694Z,72.60
2023-05-04T03:11:33.224Z,72.67
2023-05-04T03:13:59.716Z,72.39
2023-05-04T03:16:26.222Z,72.21
2023-05-04T03:18:52.746Z,72.24
2023-05-04T03:21:19.397Z,72.50
2023-05-04T03:23:46.089Z,72.44
2023-05-04T03:26:12.593Z,72.73
2023-05-04T03:28:39.107Z,72.68
2023-05-04T03:31:05.651Z,72.65
2023-05-04T03:33:32.345Z,72.87
2023-05-04T03:35:58.865Z,72.72
2023-05-04T03:38:26.052Z,72.76
2023-05-04T03:40:52.765Z,73.13
2023-05-04T03:43:19.268Z,72.95
2023-05-04T03:45:46.131Z,72.89
2023-05-04T03:48:12.824Z,72.79
2023-05-04T03:50:39.504Z,73.03
2023-05-04T03:53:06.177Z,72.91
2023-05-04T03:55:32.890Z,73.30
2023-05-04T03:57:59.407Z,73.12
2023-05-04T04:00:26.225Z,73.46
2023-05-04T04:02:52.779Z,73.33
2023-05-04T04:05:19.484Z,73.56
2023-05-04T04:07:46.312Z,73.60
2023-05-04T04:10:12.823Z,73.41
2023-05-04T04:12:39.357Z,73.35
2023-05-04T04:15:06.460Z,73.27
2023-05-04T04:17:33.330Z,73.22
2023-05-04T04:19:59.817Z,73.58
2023-05-04T04:22:26.396Z,72.99
2023-05-04T04:24:52.953Z,73.34
2023-05-04T04:27:19.505Z,73.19
2023-05-04T04:29:46.156Z,73.28
2023-05-04T04:32:13.385Z,73.48
2023-05-04T04:34:40.729Z,73.47
2023-05-04T04:37:07.424Z,73.16
2023-05-04T04:39:34.037Z,73.29
2023-05-04T04:42:00.621Z,73.01
2023-05-04T04:44:27.121Z,73.45
2023-05-04T04:46:53.637Z,73.35
2023-05-04T04:49:20.148Z,73.46
2023-05-04T04:51:48.764Z,72.97
2023-05-04T04:54:15.238Z,72.75
2023-05-04T04:56:41.977Z,73.00
2023-05-04T04:59:08.516Z,72.58
2023-05-04T05:01:35.206Z,72.50
2023-05-04T05:04:01.758Z,72.63
2023-05-04T05:06:28.300Z,72.23
2023-05-04T05:08:54.892Z,72.20
2023-05-04T05:11:21.409Z,72.30
2023-05-04T05:13:47.911Z,71.92
2023-05-04T05:16:14.452Z,72.07
2023-05-04T05:18:41.095Z,71.96
2023-05-04T05:21:07.702Z,71.84
2023-05-04T05:23:35.650Z,71.79
2023-05-04T05:26:03.373Z,71.77
2023-05-04T05:28:30.410Z,71.69
2023-05-04T05:30:56.958Z,71.74
2023-05-04T05:33:23.921Z,71.59
2023-05-04T05:35:50.441Z,71.07
2023-05-04T05:38:18.405Z,71.06
2023-05-04T05:40:44.963Z,71.16
2023-05-04T05:43:11.740Z,71.06
2023-05-04T05:45:38.329Z,70.97
2023-05-04T05:48:05.726Z,70.89
2023-05-04T05:50:32.254Z,70.75
2023-05-04T05:52:58.733Z,70.15
2023-05-04T05:55:25.262Z,69.96
2023-05-04T05:57:52.155Z,70.49
2023-05-04T06:00:18.864Z,70.38
2023-05-04T06:02:45.682Z,69.96
2023-05-04T06:05:12.787Z,70.07
2023-05-04T06:07:39.361Z,69.69
2023-05-04T06:10:06.445Z,69.51
2023-05-04T06:12:33.366Z,69.21
2023-05-04T06:14:59.989Z,68.27
2023-05-04T06:17:26.542Z,68.79
2023-05-04T06:19:53.107Z,67.64
2023-05-04T06:22:19.662Z,67.89
2023-05-04T06:24:46.604Z,67.24
2023-05-04T06:27:13.323Z,66.48
2023-05-04T06:29:41.271Z,66.36
2023-05-04T06:32:09.905Z,66.20
2023-05-04T06:34:36.660Z,65.10
2023-05-04T06:37:03.455Z,65.06
2023-05-04T06:39:29.995Z,64.78
2023-05-04T06:41:57.137Z,65.23
2023-05-04T06:44:23.772Z,65.08
2023-05-04T06:46:50.428Z,64.88
2023-05-04T06:49:18.132Z,64.37
2023-05-04T06:51:44.797Z,64.20
2023-05-04T06:54:12.485Z,63.72
2023-05-04T06:56:39.774Z,63.71
2023-05-04T06:59:07.123Z,63.46
2023-05-04T07:01:33.713Z,62.62
2023-05-04T07:04:00.423Z,62.74
2023-05-04T07:06:27.317Z,62.38
2023-05-04T07:08:53.895Z,62.79
2023-05-04T07:11:20.583Z,62.44
2023-05-04T07:13:47.146Z,62.12
2023-05-04T07:16:13.719Z,61.71
2023-05-04T07:18:40.478Z,60.72
2023-05-04T07:21:26.934Z,60.59
2023-05-04T07:23:55.249Z,60.69
2023-05-04T07:26:22.674Z,60.33
2023-05-04T07:28:49.220Z,60.30
2023-05-04T07:31:16.011Z,59.89
2023-05-04T07:33:42.804Z,59.25
2023-05-04T07:36:09.633Z,58.84
2023-05-04T07:38:36.714Z,59.24
2023-05-04T07:41:03.253Z,60.04
2023-05-04T07:43:29.759Z,59.24
2023-05-04T07:45:56.610Z,58.46
2023-05-04T07:48:25.441Z,58.24
2023-05-04T07:50:53.728Z,58.12
2023-05-04T07:53:25.577Z,57.25
2023-05-04T07:55:54.260Z,57.82
2023-05-04T07:58:20.831Z,57.37
2023-05-04T08:00:47.430Z,56.94
2023-05-04T08:03:13.966Z,56.59
2023-05-04T08:05:40.673Z,55.64
2023-05-04T08:08:08.729Z,56.06
2023-05-04T08:10:39.047Z,55.92
2023-05-04T08:13:05.854Z,55.02
2023-05-04T08:15:32.467Z,54.25
2023-05-04T08:17:59.252Z,53.85
2023-05-04T08:20:25.913Z,54.61
2023-05-04T08:22:52.646Z,54.22
2023-05-04T08:25:19.295Z,54.35
2023-05-04T08:27:45.908Z,53.62
2023-05-04T08:30:12.809Z,52.55
2023-05-04T08:32:40.041Z,51.44
2023-05-04T08:35:06.886Z,50.05
2023-05-04T08:37:34.070Z,49.03
2023-05-04T08:40:00.651Z,48.08
2023-05-04T08:42:31.224Z,47.16
2023-05-04T08:44:58.785Z,45.88
2023-05-04T08:47:26.849Z,45.61
2023-05-04T08:49:54.094Z,45.11
2023-05-04T08:52:24.680Z,43.51
2023-05-04T08:54:56.172Z,43.13
2023-05-04T08:57:24.060Z,42.00
2023-05-04T08:59:55.358Z,42.48
2023-05-04T09:02:23.541Z,42.27
2023-05-04T09:04:51.628Z,41.22
2023-05-04T09:07:18.624Z,41.25
2023-05-04T09:09:45.465Z,40.79
2023-05-04T09:12:12.579Z,39.75
2023-05-04T09:14:41.350Z,40.29
2023-05-04T09:17:17.934Z,40.86
2023-05-04T09:19:44.691Z,41.83
2023-05-04T09:22:17.993Z,41.82
2023-05-04T09:24:46.377Z,40.50
2023-05-04T09:27:13.923Z,40.24
2023-05-04T09:29:42.440Z,39.66
2023-05-04T09:32:12.502Z,40.17
2023-05-04T09:34:49.530Z,39.44
2023-05-04T09:37:16.117Z,38.55
2023-05-04T09:39:53.711Z,37.70
2023-05-04T09:42:21.398Z,39.03
2023-05-04T09:45:07.959Z,38.63
2023-05-04T09:47:38.886Z,38.23
2023-05-04T09:50:20.737Z,37.22
2023-05-04T09:52:48.924Z,38.93
2023-05-04T09:55:17.789Z,37.43
2023-05-04T09:57:45.868Z,36.66
2023-05-04T10:00:14.193Z,36.40
2023-05-04T10:02:41.162Z,36.03
2023-05-04T10:05:09.504Z,36.90
2023-05-04T10:07:36.585Z,35.99
2023-05-04T10:10:03.655Z,35.64
2023-05-04T10:12:31.000Z,36.24
2023-05-04T10:14:57.912Z,36.33
2023-05-04T10:17:46.201Z,36.34
2023-05-04T10:20:28.506Z,35.79
2023-05-04T10:23:00.169Z,36.20
2023-05-04T10:25:41.901Z,35.39
2023-05-04T10:28:27.261Z,35.42
2023-05-04T10:31:00.314Z,35.25
2023-05-04T10:33:27.192Z,34.19
2023-05-04T10:35:54.453Z,34.64
2023-05-04T10:38:35.432Z,34.50
2023-05-04T10:41:13.663Z,33.72
2023-05-04T10:43:40.187Z,33.37
2023-05-04T10:46:17.308Z,33.76
2023-05-04T10:48:43.868Z,33.57
2023-05-04T10:51:21.210Z,34.45
2023-05-04T10:53:48.064Z,34.51
2023-05-04T10:56:25.181Z,35.17
2023-05-04T10:58:52.503Z,35.22
2023-05-04T11:01:19.762Z,34.19
2023-05-04T11:03:47.048Z,33.30
2023-05-04T11:06:24.090Z,33.25
2023-05-04T11:09:01.887Z,34.65
2023-05-04T11:11:28.772Z,35.50
2023-05-04T11:13:55.494Z,35.37
2023-05-04T11:16:27.039Z,36.22
2023-05-04T11:18:54.513Z,35.85
2023-05-04T11:21:25.706Z,34.77
2023-05-04T11:23:59.304Z,33.56
2023-05-04T11:26:26.299Z,34.47
2023-05-04T11:28:52.821Z,34.75
2023-05-04T11:31:20.952Z,35.06
2023-05-04T11:33:55.066Z,33.41
2023-05-04T11:36:24.540Z,32.34
2023-05-04T11:38:51.149Z,30.64
2023-05-04T11:41:17.677Z,30.63
2023-05-04T11:43:45.188Z,30.65
2023-05-04T11:46:12.812Z,30.54
2023-05-04T11:48:39.316Z,30.78
2023-05-04T11:51:07.013Z,31.80
2023-05-04T11:53:38.411Z,30.81
2023-05-04T11:56:06.556Z,30.63
2023-05-04T11:58:33.141Z,30.86
2023-05-04T12:00:59.926Z,31.27
2023-05-04T12:03:44.035Z,30.63
2023-05-04T12:06:15.163Z,31.25
2023-05-04T12:08:44.475Z,32.63
2023-05-04T12:11:25.364Z,31.75
2023-05-04T12:14:10.246Z,31.31
2023-05-04T12:16:38.213Z,30.91
2023-05-04T12:19:13.938Z,29.40
2023-05-04T12:21:51.868Z,28.77
2023-05-04T12:24:21.769Z,30.33
2023-05-04T12:26:48.489Z,30.54
2023-05-04T12:29:15.224Z,30.23
2023-05-04T12:31:41.789Z,31.26
2023-05-04T12:34:08.313Z,30.51
2023-05-04T12:36:35.086Z,31.69
2023-05-04T12:39:02.039Z,32.03
2023-05-04T12:41:28.569Z,31.93
2023-05-04T12:43:55.145Z,32.04
2023-05-04T12:46:22.712Z,31.33
2023-05-04T12:48:49.316Z,30.79
2023-05-04T12:51:15.890Z,30.69
2023-05-04T12:53:43.515Z,30.57
2023-05-04T12:56:10.051Z,30.16
2023-05-04T12:58:36.604Z,30.54
2023-05-04T13:01:04.364Z,30.29
2023-05-04T13:03:31.040Z,31.28
2023-05-04T13:05:58.066Z,31.00
2023-05-04T13:08:24.929Z,31.13
2023-05-04T13:10:52.181Z,31.69
2023-05-04T13:13:19.287Z,30.33
2023-05-04T13:15:50.115Z,30.14
2023-05-04T13:18:16.821Z,30.46
2023-05-04T13:20:43.437Z,30.76
2023-05-04T13:23:09.982Z,32.13
2023-05-04T13:25:36.536Z,31.40
2023-05-04T13:28:03.464Z,30.94
2023-05-04T13:30:30.010Z,30.97
2023-05-04T13:32:56.625Z,31.41
2023-05-04T13:35:23.906Z,31.03
2023-05-04T13:37:50.919Z,30.90
2023-05-04T13:40:17.528Z,31.49
2023-05-04T13:42:44.592Z,30.75
2023-05-04T13:45:11.641Z,29.78
2023-05-04T13:47:38.282Z,30.17
2023-05-04T13:50:05.264Z,28.94
2023-05-04T13:52:32.370Z,28.41
2023-05-04T13:54:59.438Z,28.57
2023-05-04T13:57:27.845Z,27.28
2023-05-04T14:00:06.419Z,26.82
2023-05-04T14:02:33.958Z,26.23
2023-05-04T14:05:01.419Z,25.95
2023-05-04T14:07:28.116Z,25.28
2023-05-04T14:09:55.988Z,25.61
2023-05-04T14:12:22.863Z,24.73
2023-05-04T14:14:50.754Z,24.57
2023-05-04T14:17:17.683Z,26.06
2023-05-04T14:19:44.796Z,26.84
2023-05-04T14:22:11.372Z,26.85
2023-05-04T14:24:37.937Z,25.81
2023-05-04T14:27:04.476Z,24.83
2023-05-04T14:29:32.310Z,23.85
2023-05-04T14:31:58.989Z,24.05
2023-05-04T14:34:25.663Z,24.31
2023-05-04T14:36:53.181Z,23.91
2023-05-04T14:39:20.029Z,23.95
2023-05-04T14:41:46.564Z,24.10
2023-05-04T14:44:13.249Z,23.49
2023-05-04T14:46:39.793Z,23.85
2023-05-04T14:49:07.335Z,24.71
2023-05-04T14:51:33.869Z,24.58
2023-05-04T14:54:00.713Z,24.72
2023-05-04T14:56:27.566Z,25.07
2023-05-04T14:58:54.160Z,24.99
2023-05-04T15:01:20.858Z,25.09
2023-05-04T15:03:48.164Z,25.50
2023-05-04T15:06:14.719Z,25.55
2023-05-04T15:08:41.357Z,26.32
2023-05-04T15:11:07.885Z,27.16
2023-05-04T15:13:34.451Z,27.45
2023-05-04T15:16:01.102Z,27.46
2023-05-04T15:18:27.760Z,27.20
2023-05-04T15:20:54.445Z,27.43
2023-05-04T15:23:21.251Z,27.73
2023-05-04T15:25:47.841Z,27.78
2023-05-04T15:28:14.516Z,27.49
2023-05-04T15:30:41.913Z,27.18
2023-05-04T15:33:08.747Z,27.26
2023-05-04T15:35:36.471Z,27.33
2023-05-04T15:38:03.215Z,27.50
2023-05-04T15:40:29.905Z,26.67
2023-05-04T15:42:56.471Z,26.45
2023-05-04T15:45:23.100Z,27.75
2023-05-04T15:47:49.733Z,27.84
2023-05-04T15:50:16.322Z,27.74
2023-05-04T15:52:43.035Z,28.20
2023-05-04T15:55:24.336Z,27.06
2023-05-04T15:57:52.613Z,26.28
2023-05-04T16:00:19.708Z,26.98
2023-05-04T16:02:46.464Z,27.25
2023-05-04T16:05:13.157Z,28.83
2023-05-04T16:07:39.715Z,29.87
2023-05-04T16:10:07.113Z,29.99
2023-05-04T16:12:33.804Z,30.39
2023-05-04T16:15:00.489Z,30.16
2023-05-04T16:17:29.198Z,28.51
2023-05-04T16:19:56.120Z,28.35
2023-05-04T16:22:22.775Z,28.47
2023-05-04T16:24:49.295Z,28.02
2023-05-04T16:27:16.369Z,27.72
2023-05-04T16:29:42.956Z,27.02
2023-05-04T16:32:09.517Z,26.37
2023-05-04T16:34:36.140Z,26.38
2023-05-04T16:37:02.748Z,26.49
2023-05-04T16:39:31.461Z,26.52
2023-05-04T16:41:58.516Z,26.69
2023-05-04T16:44:25.450Z,26.69
2023-05-04T16:46:54.047Z,26.17
2023-05-04T16:49:23.434Z,26.43
2023-05-04T16:51:50.082Z,26.10
2023-05-04T16:54:16.807Z,26.05
2023-05-04T16:56:43.407Z,25.97
2023-05-04T16:59:09.972Z,25.70
2023-05-04T17:01:36.594Z,24.81
2023-05-04T17:04:03.193Z,25.58
2023-05-04T17:06:30.048Z,26.33
2023-05-04T17:08:56.657Z,26.10
2023-05-04T17:11:23.985Z,26.67
2023-05-04T17:13:51.087Z,26.31
2023-05-04T17:16:17.809Z,26.55
2023-05-04T17:18:45.790Z,26.98
2023-05-04T17:21:12.323Z,27.22
2023-05-04T17:23:38.837Z,27.91
2023-05-04T17:26:06.316Z,29.24
2023-05-04T17:28:32.866Z,29.97
2023-05-04T17:30:59.516Z,29.41
2023-05-04T17:33:26.158Z,29.14
2023-05-04T17:35:52.688Z,29.20
2023-05-04T17:38:19.240Z,28.56
2023-05-04T17:40:45.787Z,28.76
2023-05-04T17:43:12.326Z,28.40
2023-05-04T17:45:38.947Z,28.22
2023-05-04T17:48:05.971Z,28.04
2023-05-04T17:50:32.581Z,28.99
2023-05-04T17:52:59.085Z,28.72
2023-05-04T17:55:25.714Z,29.26
2023-05-04T17:57:54.121Z,29.39
2023-05-04T18:00:21.135Z,30.43
2023-05-04T18:02:47.815Z,30.77
2023-05-04T18:05:14.419Z,31.48
2023-05-04T18:07:41.174Z,31.46
2023-05-04T18:10:08.108Z,31.73
2023-05-04T18:12:35.671Z,32.42
2023-05-04T18:15:08.183Z,32.66
2023-05-04T18:17:35.922Z,33.66
2023-05-04T18:20:02.536Z,33.79
2023-05-04T18:22:29.140Z,34.33
2023-05-04T18:24:55.699Z,34.54
2023-05-04T18:27:22.257Z,34.83
2023-05-04T18:29:48.820Z,35.14
2023-05-04T18:32:15.381Z,35.33
2023-05-04T18:34:42.090Z,35.71
2023-05-04T18:37:08.643Z,35.52
2023-05-04T18:39:35.326Z,36.01
2023-05-04T18:42:01.962Z,36.70
2023-05-04T18:44:28.482Z,37.13
2023-05-04T18:46:55.112Z,37.23
2023-05-04T18:49:21.639Z,37.53
2023-05-04T18:51:48.226Z,37.63
2023-05-04T18:54:16.146Z,37.51
2023-05-04T18:56:42.886Z,38.37
2023-05-04T18:59:10.718Z,38.26
2023-05-04T19:01:37.816Z,38.50
2023-05-04T19:04:04.965Z,38.94
2023-05-04T19:06:32.542Z,38.82
2023-05-04T19:08:59.532Z,39.03
2023-05-04T19:11:26.582Z,39.18
2023-05-04T19:13:53.350Z,39.10
2023-05-04T19:16:20.038Z,39.57
2023-05-04T19:18:46.749Z,39.74
2023-05-04T19:21:13.316Z,40.01
2023-05-04T19:23:40.124Z,40.16
2023-05-04T19:26:06.675Z,40.47
2023-05-04T19:28:33.197Z,40.30
2023-05-04T19:30:59.813Z,40.42
2023-05-04T19:33:36.368Z,40.59
2023-05-04T19:36:11.515Z,40.86
2023-05-04T19:38:38.064Z,40.45
2023-05-04T19:41:04.696Z,40.97
2023-05-04T19:43:32.840Z,40.96
2023-05-04T19:45:59.357Z,41.13
2023-05-04T19:48:25.912Z,41.17
2023-05-04T19:50:52.442Z,41.18
2023-05-04T19:53:18.939Z,41.53
2023-05-04T19:55:45.511Z,42.04
2023-05-04T19:58:12.066Z,42.15
2023-05-04T20:00:38.689Z,42.41
2023-05-04T20:03:05.417Z,42.43
2023-05-04T20:05:31.958Z,42.72
2023-05-04T20:07:58.488Z,43.39
2023-05-04T20:10:25.411Z,43.78
2023-05-04T20:12:51.995Z,44.68
2023-05-04T20:15:18.577Z,44.64
2023-05-04T20:17:45.086Z,45.13
2023-05-04T20:20:12.215Z,46.09
2023-05-04T20:22:38.701Z,46.56
2023-05-04T20:25:05.543Z,47.04
2023-05-04T20:27:32.047Z,47.25
2023-05-04T20:29:58.925Z,47.86
2023-05-04T20:32:25.630Z,47.83
2023-05-04T20:34:52.394Z,48.06
2023-05-04T20:37:18.977Z,48.10
2023-05-04T20:39:45.512Z,48.32
2023-05-04T20:42:12.690Z,48.18
2023-05-04T20:44:39.180Z,48.74
2023-05-04T20:47:05.782Z,48.67
2023-05-04T20:49:32.474Z,48.77
2023-05-04T20:51:59.009Z,48.56
2023-05-04T20:54:25.615Z,48.34
2023-05-04T20:56:52.191Z,48.47
2023-05-04T20:59:18.793Z,48.11
2023-05-04T21:01:45.328Z,48.40
2023-05-04T21:04:11.898Z,48.61
2023-05-04T21:06:38.403Z,48.40
2023-05-04T21:09:04.977Z,49.23
2023-05-04T21:11:31.483Z,48.98
2023-05-04T21:13:58.092Z,49.05
2023-05-04T21:16:24.713Z,48.56
2023-05-04T21:18:51.352Z,48.50
2023-05-04T21:21:17.939Z,48.63
2023-05-04T21:23:44.486Z,49.18
2023-05-04T21:26:11.567Z,49.60
2023-05-04T21:28:38.070Z,49.37
2023-05-04T21:31:08.455Z,49.19
2023-05-04T21:33:36.115Z,50.03
2023-05-04T21:36:15.096Z,50.08
2023-05-04T21:38:42.140Z,50.76
2023-05-04T21:41:15.274Z,51.67
2023-05-04T21:43:42.660Z,52.63
2023-05-04T21:46:09.286Z,52.86
2023-05-04T21:48:35.908Z,52.96
2023-05-04T21:51:02.645Z,52.67
2023-05-04T21:53:33.295Z,52.82
2023-05-04T21:56:07.701Z,53.73
2023-05-04T21:58:34.533Z,53.65
2023-05-04T22:01:01.152Z,53.55
2023-05-04T22:03:28.695Z,54.08
2023-05-04T22:05:57.687Z,54.38
2023-05-04T22:08:25.053Z,54.78
2023-05-04T22:10:52.654Z,55.32
2023-05-04T22:13:19.397Z,55.68
2023-05-04T22:15:49.932Z,56.12
2023-05-04T22:18:17.227Z,56.23
2023-05-04T22:20:43.754Z,56.40
2023-05-04T22:23:10.573Z,57.15
2023-05-04T22:25:37.096Z,57.18
2023-05-04T22:28:03.960Z,57.05
2023-05-04T22:30:30.515Z,57.74
2023-05-04T22:32:57.222Z,57.99
2023-05-04T22:35:23.971Z,58.11
2023-05-04T22:37:50.786Z,58.65
2023-05-04T22:40:17.473Z,58.79
2023-05-04T22:42:46.936Z,58.88
2023-05-04T22:45:14.445Z,59.18
2023-05-04T22:47:41.905Z,59.16
2023-05-04T22:50:09.532Z,59.44
2023-05-04T22:52:36.710Z,59.48
2023-05-04T22:55:04.027Z,60.16
2023-05-04T22:57:30.599Z,60.87
2023-05-04T22:59:57.139Z,61.60
2023-05-04T23:02:23.875Z,61.47
2023-05-04T23:04:50.600Z,62.77
2023-05-04T23:07:17.096Z,63.88
2023-05-04T23:09:45.197Z,64.21
2023-05-04T23:12:12.802Z,65.84
2023-05-04T23:14:39.370Z,66.20
2023-05-04T23:17:05.932Z,65.94
2023-05-04T23:19:32.674Z,66.01
2023-05-04T23:21:59.453Z,65.72
2023-05-04T23:24:26.296Z,66.15
2023-05-04T23:26:52.889Z,69.06
2023-05-04T23:29:19.813Z,72.33
2023-05-04T23:31:46.376Z,72.07
2023-05-04T23:34:13.527Z,72.46
2023-05-04T23:36:40.224Z,72.60
2023-05-04T23:39:06.920Z,73.20
2023-05-04T23:41:33.558Z,72.55
2023-05-04T23:44:00.408Z,73.52
2023-05-04T23:46:26.989Z,71.73
2023-05-04T23:48:53.525Z,71.92
2023-05-04T23:51:21.182Z,71.13
2023-05-04T23:53:47.734Z,71.13
2023-05-04T23:56:14.530Z,71.17
2023-05-04T23:58:41.930Z,71.17
